createdAt,value
2022-08-01T00:01:36.851Z,3.92
2022-08-01T00:04:24.174Z,2.70
2022-08-01T00:07:11.491Z,1.50
2022-08-01T00:09:58.912Z,3.42
2022-08-01T00:12:47.344Z,3.10
2022-08-01T00:15:34.729Z,2.20
2022-08-01T00:18:21.778Z,2.35
2022-08-01T00:21:08.781Z,1.57
2022-08-01T00:23:56.368Z,2.75
2022-08-01T00:26:43.624Z,3.40
2022-08-01T00:30:09.437Z,5.33
2022-08-01T00:32:19.717Z,2.20
2022-08-01T00:35:07.868Z,3.40
2022-08-01T00:37:55.253Z,2.05
2022-08-01T00:40:42.444Z,3.60
2022-08-01T00:43:29.900Z,2.12
2022-08-01T00:46:17.390Z,3.40
2022-08-01T00:49:05.141Z,5.15
2022-08-01T00:51:53.642Z,3.83
2022-08-01T00:54:41.730Z,1.50
2022-08-01T00:58:04.743Z,3.08
2022-08-01T01:00:18.642Z,3.10
2022-08-01T01:03:07.670Z,2.65
2022-08-01T01:05:58.232Z,3.47
2022-08-01T01:08:48.687Z,3.95
2022-08-01T01:11:39.104Z,1.85
2022-08-01T01:14:38.747Z,2.37
2022-08-01T01:17:50.350Z,4.28
2022-08-01T01:20:19.256Z,3.92
2022-08-01T01:23:23.989Z,2.05
2022-08-01T01:26:20.680Z,3.00
2022-08-01T01:29:22.764Z,4.90
2022-08-01T01:32:13.295Z,2.75
2022-08-01T01:35:02.140Z,2.65
2022-08-01T01:37:52.782Z,2.80
2022-08-01T01:40:41.028Z,3.58
2022-08-01T01:43:33.373Z,1.72
2022-08-01T01:46:22.929Z,1.90
2022-08-01T01:49:11.845Z,2.33
2022-08-01T01:52:02.691Z,3.72
2022-08-01T01:54:53.652Z,2.10
2022-08-01T01:57:43.680Z,1.57
2022-08-01T02:00:32.341Z,11.22
2022-08-01T02:03:21.337Z,10.68
2022-08-01T02:06:09.583Z,1.82
2022-08-01T02:08:57.699Z,3.37
2022-08-01T02:11:59.140Z,3.12
2022-08-01T02:14:37.376Z,4.30
2022-08-01T02:17:45.600Z,2.22
2022-08-01T02:20:34.639Z,5.12
2022-08-01T02:23:24.516Z,2.05
2022-08-01T02:26:15.079Z,3.92
2022-08-01T02:29:05.547Z,2.22
2022-08-01T02:31:56.228Z,3.35
2022-08-01T02:34:46.219Z,4.30
2022-08-01T02:37:35.921Z,9.65
2022-08-01T02:40:23.596Z,1.70
2022-08-01T02:43:12.885Z,1.92
2022-08-01T02:46:03.008Z,4.62
2022-08-01T02:48:53.354Z,18.73
2022-08-01T02:51:42.427Z,3.00
2022-08-01T02:54:31.431Z,2.58
2022-08-01T02:57:20.067Z,3.40
2022-08-01T03:00:09.112Z,2.67
2022-08-01T03:02:59.101Z,5.15
2022-08-01T03:05:47.496Z,3.60
2022-08-01T03:08:36.584Z,2.00
2022-08-01T03:11:25.884Z,3.75
2022-08-01T03:14:14.612Z,3.15
2022-08-01T03:17:02.615Z,2.42
2022-08-01T03:19:51.764Z,12.35
2022-08-01T03:22:40.903Z,1.98
2022-08-01T03:25:30.118Z,1.32
2022-08-01T03:28:19.003Z,4.97
2022-08-01T03:31:07.042Z,3.50
2022-08-01T03:33:54.672Z,6.33
2022-08-01T03:36:50.526Z,7.12
2022-08-01T03:39:41.121Z,5.90
2022-08-01T03:42:31.888Z,2.00
2022-08-01T03:45:22.276Z,2.65
2022-08-01T03:48:15.728Z,2.87
2022-08-01T03:51:05.100Z,3.92
2022-08-01T03:53:54.364Z,2.52
2022-08-01T03:56:43.652Z,4.72
2022-08-01T03:59:32.380Z,1.57
2022-08-01T04:02:22.864Z,2.02
2022-08-01T04:05:09.971Z,3.27
2022-08-01T04:07:57.315Z,6.12
2022-08-01T04:10:44.964Z,3.92
2022-08-01T04:13:37.282Z,5.05
2022-08-01T04:16:23.690Z,5.30
2022-08-01T04:19:10.679Z,4.92
2022-08-01T04:21:58.207Z,3.30
2022-08-01T04:24:56.547Z,2.52
2022-08-01T04:27:50.713Z,2.40
2022-08-01T04:30:35.904Z,2.83
2022-08-01T04:33:24.766Z,2.72
2022-08-01T04:36:14.054Z,2.98
2022-08-01T04:39:03.394Z,2.87
2022-08-01T04:41:52.528Z,2.40
2022-08-01T04:44:40.247Z,2.60
2022-08-01T04:47:28.729Z,2.67
2022-08-01T04:50:16.397Z,3.05
2022-08-01T04:53:04.120Z,2.65
2022-08-01T04:55:51.394Z,2.95
2022-08-01T04:58:38.765Z,3.60
2022-08-01T05:01:26.405Z,2.60
2022-08-01T05:04:13.508Z,2.08
2022-08-01T05:07:01.392Z,5.33
2022-08-01T05:09:50.123Z,3.47
2022-08-01T05:12:37.366Z,4.87
2022-08-01T05:15:24.693Z,2.33
2022-08-01T05:18:12.209Z,5.45
2022-08-01T05:20:59.429Z,3.52
2022-08-01T05:24:06.643Z,2.17
2022-08-01T05:29:44.776Z,2.50
2022-08-01T05:32:32.849Z,5.53
2022-08-01T05:35:20.170Z,1.87
2022-08-01T05:38:07.426Z,3.35
2022-08-01T05:40:56.249Z,3.12
2022-08-01T05:43:43.451Z,3.35
2022-08-01T05:46:31.822Z,1.90
2022-08-01T05:49:19.433Z,4.12
2022-08-01T05:52:07.279Z,2.60
2022-08-01T05:54:55.101Z,3.30
2022-08-01T05:57:42.296Z,3.12
2022-08-01T06:00:29.679Z,5.40
2022-08-01T06:03:16.956Z,2.90
2022-08-01T06:06:05.104Z,3.77
2022-08-01T06:08:52.865Z,5.70
2022-08-01T06:11:40.062Z,6.17
2022-08-01T06:14:27.404Z,2.72
2022-08-01T06:17:14.587Z,3.75
2022-08-01T06:20:02.906Z,4.47
2022-08-01T06:22:53.219Z,4.33
2022-08-01T06:25:42.149Z,4.75
2022-08-01T06:28:30.263Z,4.78
2022-08-01T06:31:17.638Z,5.85
2022-08-01T06:34:04.951Z,5.05
2022-08-01T06:36:52.083Z,4.25
2022-08-01T06:39:39.362Z,6.00
2022-08-01T06:42:26.876Z,23.92
2022-08-01T06:45:15.764Z,5.83
2022-08-01T06:48:02.842Z,5.28
2022-08-01T06:50:50.347Z,7.12
2022-08-01T06:53:39.285Z,13.03
2022-08-01T06:56:32.189Z,6.83
2022-08-01T06:59:19.504Z,8.70
2022-08-01T07:02:09.465Z,6.55
2022-08-01T07:04:58.640Z,9.30
2022-08-01T07:07:46.269Z,8.65
2022-08-01T07:10:33.722Z,24.80
2022-08-01T07:13:43.907Z,6.25
2022-08-01T07:16:16.507Z,9.88
2022-08-01T07:19:04.242Z,8.08
2022-08-01T07:21:51.671Z,7.80
2022-08-01T07:24:39.563Z,8.40
2022-08-01T07:27:28.490Z,8.43
2022-08-01T07:30:15.754Z,6.55
2022-08-01T07:33:03.900Z,7.70
2022-08-01T07:35:51.276Z,7.15
2022-08-01T07:38:38.844Z,5.10
2022-08-01T07:41:53.062Z,6.50
2022-08-01T07:44:15.253Z,8.88
2022-08-01T07:47:02.758Z,6.28
2022-08-01T07:49:49.944Z,8.65
2022-08-01T07:52:37.506Z,7.03
2022-08-01T07:55:25.110Z,7.92
2022-08-01T07:58:14.963Z,7.92
2022-08-01T08:01:02.010Z,7.37
2022-08-01T08:03:49.551Z,6.58
2022-08-01T08:06:37.059Z,7.22
2022-08-01T08:09:24.613Z,5.47
2022-08-01T08:12:13.178Z,8.68
2022-08-01T08:17:56.641Z,9.30
2022-08-01T08:20:44.882Z,7.17
2022-08-01T08:23:50.076Z,7.50
2022-08-01T08:26:38.637Z,7.17
2022-08-01T08:29:30.533Z,9.00
2022-08-01T08:32:17.933Z,6.55
2022-08-01T08:35:07.050Z,6.67
2022-08-01T08:37:56.067Z,8.28
2022-08-01T08:40:43.984Z,6.15
2022-08-01T08:43:31.213Z,6.70
2022-08-01T08:46:18.516Z,7.12
2022-08-01T08:49:08.030Z,5.58
2022-08-01T08:51:57.604Z,7.80
2022-08-01T08:54:46.256Z,10.00
2022-08-01T08:57:34.229Z,6.47
2022-08-01T09:00:21.503Z,6.92
2022-08-01T09:03:08.931Z,6.75
2022-08-01T09:05:57.492Z,5.15
2022-08-01T09:08:45.007Z,7.78
2022-08-01T09:11:32.724Z,5.87
2022-08-01T09:14:24.990Z,7.58
2022-08-01T09:17:13.532Z,5.55
2022-08-01T09:20:00.868Z,6.65
2022-08-01T09:22:48.533Z,9.13
2022-08-01T09:25:46.145Z,5.12
2022-08-01T09:28:32.320Z,7.17
2022-08-01T09:31:20.899Z,5.33
2022-08-01T09:34:09.774Z,7.45
2022-08-01T09:36:59.865Z,9.90
2022-08-01T09:39:49.945Z,7.22
2022-08-01T09:42:37.009Z,4.58
2022-08-01T09:45:41.657Z,6.28
2022-08-01T09:48:28.376Z,6.58
2022-08-01T09:51:13.939Z,4.40
2022-08-01T09:54:05.696Z,5.28
2022-08-01T09:56:53.233Z,4.65
2022-08-01T09:59:57.728Z,5.00
2022-08-01T10:02:36.568Z,5.47
2022-08-01T10:05:37.693Z,5.75
2022-08-01T10:08:26.709Z,4.47
2022-08-01T10:11:16.665Z,3.83
2022-08-01T10:14:04.129Z,6.80
2022-08-01T10:17:05.103Z,7.85
2022-08-01T10:19:43.175Z,5.45
2022-08-01T10:22:35.669Z,4.58
2022-08-01T10:25:42.487Z,5.17
2022-08-01T10:28:21.372Z,4.58
2022-08-01T10:31:13.228Z,4.47
2022-08-01T10:34:01.085Z,3.40
2022-08-01T10:36:49.801Z,5.15
2022-08-01T10:39:37.791Z,3.98
2022-08-01T10:42:26.420Z,5.12
2022-08-01T10:45:16.713Z,4.67
2022-08-01T10:48:10.792Z,5.15
2022-08-01T10:51:01.603Z,3.52
2022-08-01T10:53:54.106Z,4.97
2022-08-01T10:56:49.409Z,6.85
2022-08-01T10:59:51.161Z,7.37
2022-08-01T11:02:32.172Z,5.85
2022-08-01T11:05:25.137Z,4.00
2022-08-01T11:08:17.082Z,6.30
2022-08-01T11:11:06.119Z,4.90
2022-08-01T11:14:13.939Z,3.85
2022-08-01T11:17:37.844Z,3.50
2022-08-01T11:20:31.550Z,5.85
2022-08-01T11:23:19.647Z,3.30
2022-08-01T11:26:10.660Z,3.15
2022-08-01T11:29:21.659Z,5.25
2022-08-01T11:35:10.525Z,3.67
2022-08-01T11:37:58.156Z,5.35
2022-08-01T11:40:45.925Z,4.95
2022-08-01T11:43:33.521Z,3.95
2022-08-01T11:46:20.715Z,2.90
2022-08-01T11:49:41.971Z,3.95
2022-08-01T11:52:37.138Z,4.42
2022-08-01T11:55:24.995Z,4.87
2022-08-01T11:58:22.234Z,3.58
2022-08-01T12:01:04.185Z,6.00
2022-08-01T12:03:54.822Z,4.35
2022-08-01T12:06:43.417Z,4.03
2022-08-01T12:09:30.585Z,3.08
2022-08-01T12:12:19.270Z,4.03
2022-08-01T12:15:10.092Z,3.02
2022-08-01T12:18:02.471Z,4.12
2022-08-01T12:20:56.745Z,3.50
2022-08-01T12:23:39.242Z,3.87
2022-08-01T12:26:41.399Z,3.83
2022-08-01T12:29:37.404Z,5.30
2022-08-01T12:32:28.929Z,3.00
2022-08-01T12:35:18.860Z,2.98
2022-08-01T12:38:09.099Z,3.40
2022-08-01T12:40:57.307Z,5.47
2022-08-01T12:44:04.127Z,4.20
2022-08-01T12:46:52.527Z,4.75
2022-08-01T12:49:40.519Z,4.30
2022-08-01T12:52:27.854Z,5.67
2022-08-01T12:55:18.544Z,4.42
2022-08-01T12:58:13.951Z,3.58
2022-08-01T13:01:10.166Z,4.90
2022-08-01T13:04:07.549Z,2.87
2022-08-01T13:06:55.920Z,2.72
2022-08-01T13:09:51.529Z,4.55
2022-08-01T13:12:40.696Z,6.30
2022-08-01T13:15:34.113Z,2.95
2022-08-01T13:18:30.360Z,2.80
2022-08-01T13:21:22.880Z,3.47
2022-08-01T13:24:13.070Z,4.20
2022-08-01T13:27:04.782Z,4.53
2022-08-01T13:29:54.267Z,2.45
2022-08-01T13:32:43.635Z,4.60
2022-08-01T13:35:30.952Z,2.90
2022-08-01T13:38:18.221Z,3.52
2022-08-01T13:41:05.875Z,4.03
2022-08-01T13:43:58.374Z,3.87
2022-08-01T13:46:49.437Z,4.78
2022-08-01T13:49:37.421Z,5.28
2022-08-01T13:52:21.109Z,2.92
2022-08-01T13:55:10.935Z,7.05
2022-08-01T13:57:58.056Z,3.02
2022-08-01T14:00:45.540Z,4.80
2022-08-01T14:03:33.346Z,4.60
2022-08-01T14:06:23.997Z,4.83
2022-08-01T14:09:17.427Z,3.22
2022-08-01T14:12:00.062Z,3.22
2022-08-01T14:14:47.623Z,6.92
2022-08-01T14:17:37.748Z,5.42
2022-08-01T14:20:24.052Z,6.50
2022-08-01T14:23:12.027Z,4.45
2022-08-01T14:26:04.292Z,4.25
2022-08-01T14:29:07.381Z,5.75
2022-08-01T14:31:54.969Z,4.87
2022-08-01T14:34:42.471Z,7.65
2022-08-01T14:37:31.747Z,3.37
2022-08-01T14:40:19.672Z,3.20
2022-08-01T14:43:07.129Z,3.87
2022-08-01T14:45:56.063Z,3.40
2022-08-01T14:48:43.737Z,4.58
2022-08-01T14:51:32.635Z,4.25
2022-08-01T14:54:20.045Z,4.92
2022-08-01T14:57:08.899Z,6.92
2022-08-01T14:59:56.325Z,5.10
2022-08-01T15:02:44.141Z,4.10
2022-08-01T15:05:33.304Z,4.92
2022-08-01T15:08:20.537Z,6.40
2022-08-01T15:11:09.537Z,9.30
2022-08-01T15:14:14.907Z,3.87
2022-08-01T15:17:02.459Z,4.58
2022-08-01T15:19:52.411Z,9.50
2022-08-01T15:22:39.978Z,9.88
2022-08-01T15:25:41.765Z,4.15
2022-08-01T15:28:16.341Z,4.72
2022-08-01T15:31:03.959Z,4.00
2022-08-01T15:33:51.444Z,3.67
2022-08-01T15:36:42.023Z,3.00
2022-08-01T15:39:27.622Z,3.98
2022-08-01T15:42:19.340Z,6.35
2022-08-01T15:45:06.456Z,3.08
2022-08-01T15:47:54.154Z,3.58
2022-08-01T15:50:41.648Z,6.17
2022-08-01T15:53:28.977Z,11.10
2022-08-01T15:56:17.840Z,4.85
2022-08-01T15:59:06.090Z,3.98
2022-08-01T16:01:53.427Z,4.50
2022-08-01T16:04:40.686Z,3.90
2022-08-01T16:07:28.280Z,2.92
2022-08-01T16:10:16.132Z,3.72
2022-08-01T16:13:07.132Z,3.22
2022-08-01T16:15:52.574Z,2.27
2022-08-01T16:18:40.214Z,4.22
2022-08-01T16:21:28.120Z,3.75
2022-08-01T16:24:15.755Z,3.85
2022-08-01T16:27:03.088Z,5.72
2022-08-01T16:29:50.646Z,3.77
2022-08-01T16:32:45.423Z,5.58
2022-08-01T16:35:34.597Z,4.35
2022-08-01T16:38:17.417Z,3.30
2022-08-01T16:41:19.886Z,3.92
2022-08-01T16:43:55.126Z,6.37
2022-08-01T16:46:42.644Z,6.45
2022-08-01T16:49:31.751Z,6.05
2022-08-01T16:52:19.175Z,3.67
2022-08-01T16:55:07.598Z,3.45
2022-08-01T16:57:55.624Z,3.90
2022-08-01T17:00:44.021Z,3.17
2022-08-01T17:03:46.766Z,3.58
2022-08-01T17:06:22.579Z,5.53
2022-08-01T17:09:09.953Z,3.70
2022-08-01T17:11:57.329Z,4.97
2022-08-01T17:14:44.896Z,5.85
2022-08-01T17:17:34.240Z,4.45
2022-08-01T17:20:25.276Z,3.12
2022-08-01T17:23:13.024Z,4.62
2022-08-01T17:26:00.607Z,5.60
2022-08-01T17:28:48.161Z,6.05
2022-08-01T17:31:35.959Z,7.00
2022-08-01T17:34:23.489Z,3.02
2022-08-01T17:37:11.598Z,6.00
2022-08-01T17:39:58.816Z,5.47
2022-08-01T17:42:46.436Z,3.85
2022-08-01T17:45:38.081Z,3.02
2022-08-01T17:48:23.061Z,3.87
2022-08-01T17:51:10.959Z,5.90
2022-08-01T17:53:58.377Z,3.62
2022-08-01T17:56:46.178Z,4.95
2022-08-01T17:59:33.732Z,4.62
2022-08-01T18:02:20.984Z,71.62
2022-08-01T18:05:09.609Z,13.08
2022-08-01T18:08:01.701Z,3.42
2022-08-01T18:10:46.739Z,4.10
2022-08-01T18:13:33.996Z,4.97
2022-08-01T18:16:21.731Z,6.20
2022-08-01T18:19:09.112Z,6.37
2022-08-01T18:21:56.810Z,4.17
2022-08-01T18:24:44.209Z,4.35
2022-08-01T18:28:29.304Z,6.78
2022-08-01T18:30:21.006Z,5.17
2022-08-01T18:33:08.531Z,3.98
2022-08-01T18:36:00.640Z,5.45
2022-08-01T18:38:45.114Z,6.30
2022-08-01T18:41:37.596Z,5.37
2022-08-01T18:44:25.978Z,6.30
2022-08-01T18:47:13.481Z,8.85
2022-08-01T18:50:00.798Z,5.95
2022-08-01T18:52:48.500Z,6.00
2022-08-01T18:55:35.865Z,6.22
2022-08-01T18:58:23.580Z,5.50
2022-08-01T19:01:13.121Z,8.63
2022-08-01T19:04:00.388Z,4.03
2022-08-01T19:06:47.828Z,5.85
2022-08-01T19:09:35.418Z,7.08
2022-08-01T19:12:22.892Z,5.03
2022-08-01T19:15:11.323Z,8.40
2022-08-01T19:17:58.394Z,118.47
2022-08-01T19:20:45.870Z,151.25
2022-08-01T19:23:51.100Z,219.03
2022-08-01T19:26:40.567Z,27.42
2022-08-01T19:29:36.246Z,4.35
2022-08-01T19:32:25.015Z,3.87
2022-08-01T19:35:15.789Z,7.37
2022-08-01T19:38:03.724Z,5.95
2022-08-01T19:40:51.770Z,5.25
2022-08-01T19:43:42.410Z,5.97
2022-08-01T19:46:28.938Z,4.87
2022-08-01T19:49:21.859Z,4.28
2022-08-01T19:52:11.216Z,4.10
2022-08-01T19:55:00.108Z,7.47
2022-08-01T19:58:16.911Z,4.50
2022-08-01T20:00:40.744Z,4.40
2022-08-01T20:03:31.557Z,9.00
2022-08-01T20:06:19.490Z,6.28
2022-08-01T20:09:08.870Z,6.50
2022-08-01T20:11:56.716Z,5.70
2022-08-01T20:14:44.919Z,5.90
2022-08-01T20:17:32.744Z,4.15
2022-08-01T20:20:20.025Z,3.80
2022-08-01T20:23:10.656Z,5.10
2022-08-01T20:26:00.255Z,2.95
2022-08-01T20:28:49.651Z,3.98
2022-08-01T20:31:43.884Z,3.92
2022-08-01T20:34:29.615Z,4.85
2022-08-01T20:38:04.053Z,4.60
2022-08-01T20:40:12.289Z,4.53
2022-08-01T20:42:59.858Z,3.52
2022-08-01T20:45:48.200Z,4.00
2022-08-01T20:48:35.747Z,3.60
2022-08-01T20:51:28.097Z,7.58
2022-08-01T20:54:15.392Z,4.00
2022-08-01T20:57:09.150Z,2.98
2022-08-01T21:00:02.497Z,4.53
2022-08-01T21:03:03.570Z,6.28
2022-08-01T21:06:00.102Z,5.78
2022-08-01T21:08:49.863Z,3.97
2022-08-01T21:11:42.791Z,3.75
2022-08-01T21:14:33.050Z,3.05
2022-08-01T21:17:47.739Z,2.72
2022-08-01T21:20:37.848Z,3.22
2022-08-01T21:23:36.732Z,2.67
2022-08-01T21:26:25.093Z,4.25
2022-08-01T21:29:13.071Z,3.58
2022-08-01T21:32:14.381Z,5.22
2022-08-01T21:35:04.006Z,2.62
2022-08-01T21:37:53.101Z,4.00
2022-08-01T21:40:39.999Z,3.05
2022-08-01T21:43:27.323Z,3.10
2022-08-01T21:46:17.931Z,2.87
2022-08-01T21:49:06.105Z,2.95
2022-08-01T21:51:56.724Z,3.08
2022-08-01T21:54:47.722Z,2.42
2022-08-01T21:58:12.895Z,2.87
2022-08-01T22:01:09.166Z,5.83
2022-08-01T22:03:59.564Z,3.83
2022-08-01T22:06:49.753Z,2.55
2022-08-01T22:09:43.250Z,2.12
2022-08-01T22:12:32.910Z,2.30
2022-08-01T22:15:23.225Z,2.00
2022-08-01T22:18:10.464Z,5.80
2022-08-01T22:20:58.139Z,2.83
2022-08-01T22:23:45.572Z,2.20
2022-08-01T22:26:35.454Z,2.40
2022-08-01T22:29:23.021Z,3.27
2022-08-01T22:32:10.586Z,2.95
2022-08-01T22:34:59.625Z,2.65
2022-08-01T22:37:56.977Z,2.70
2022-08-01T22:40:37.340Z,2.40
2022-08-01T22:43:42.359Z,2.12
2022-08-01T22:46:44.608Z,2.47
2022-08-01T22:50:05.779Z,2.83
2022-08-01T22:53:07.897Z,2.58
2022-08-01T22:55:58.402Z,2.67
2022-08-01T22:58:45.461Z,3.75
2022-08-01T23:01:35.213Z,5.97
2022-08-01T23:04:33.837Z,2.12
2022-08-01T23:07:26.700Z,2.00
2022-08-01T23:10:14.567Z,3.20
2022-08-01T23:13:04.142Z,6.12
2022-08-01T23:15:52.760Z,3.20
2022-08-01T23:18:44.635Z,3.27
2022-08-01T23:21:32.947Z,2.50
2022-08-01T23:24:21.167Z,2.50
2022-08-01T23:27:52.095Z,4.20
2022-08-01T23:30:15.603Z,2.67
2022-08-01T23:33:03.685Z,3.25
2022-08-01T23:35:51.825Z,2.65
2022-08-01T23:38:39.395Z,2.20
2022-08-01T23:41:26.631Z,5.42
2022-08-01T23:44:13.948Z,2.40
2022-08-01T23:47:01.833Z,3.80
2022-08-01T23:49:53.288Z,2.35
2022-08-01T23:52:48.288Z,3.08
2022-08-01T23:55:32.274Z,3.05
2022-08-01T23:58:16.549Z,3.10
